sensor_id;sensor_type;location;lat;lon;timestamp;P1;durP1;ratioP1;P2;durP2;ratioP2
26211;SDS011;13951;49.516;6.094;2023-11-21T14:55:48;4.63;;;2.30;;
26211;SDS011;13951;49.516;6.094;2023-11-21T18:50:04;10.70;;;4.70;;
26211;SDS011;13951;49.516;6.094;2023-11-21T18:52:38;8.00;;;4.80;;
26211;SDS011;13951;49.516;6.094;2023-11-21T18:55:11;11.23;;;5.27;;
26211;SDS011;13951;49.516;6.094;2023-11-21T18:57:45;9.53;;;5.10;;
26211;SDS011;13951;49.516;6.094;2023-11-21T19:00:18;11.27;;;4.80;;
26211;SDS011;13951;49.516;6.094;2023-11-21T19:02:52;10.43;;;4.40;;
26211;SDS011;13951;49.516;6.094;2023-11-21T19:05:26;11.70;;;4.93;;
26211;SDS011;13951;49.516;6.094;2023-11-21T19:07:59;10.33;;;4.87;;
26211;SDS011;13951;49.516;6.094;2023-11-21T19:10:32;10.33;;;5.00;;
26211;SDS011;13951;49.516;6.094;2023-11-21T19:13:06;8.37;;;4.57;;
26211;SDS011;13951;49.516;6.094;2023-11-21T19:15:41;11.07;;;5.67;;
26211;SDS011;13951;49.516;6.094;2023-11-21T19:18:16;9.07;;;4.60;;
26211;SDS011;13951;49.516;6.094;2023-11-21T19:20:49;11.00;;;4.93;;
26211;SDS011;13951;49.516;6.094;2023-11-21T19:23:22;7.57;;;4.17;;
26211;SDS011;13951;49.516;6.094;2023-11-21T19:25:56;10.07;;;4.63;;
26211;SDS011;13951;49.516;6.094;2023-11-21T19:28:30;11.47;;;4.87;;
26211;SDS011;13951;49.516;6.094;2023-11-21T19:31:03;10.43;;;4.67;;
26211;SDS011;13951;49.516;6.094;2023-11-21T19:33:36;11.20;;;4.80;;
26211;SDS011;13951;49.516;6.094;2023-11-21T19:36:10;10.23;;;4.60;;
26211;SDS011;13951;49.516;6.094;2023-11-21T19:38:44;8.93;;;5.17;;
26211;SDS011;13951;49.516;6.094;2023-11-21T19:41:18;9.17;;;4.37;;
26211;SDS011;13951;49.516;6.094;2023-11-21T19:43:52;8.00;;;4.30;;
26211;SDS011;13951;49.516;6.094;2023-11-21T19:46:25;7.90;;;4.53;;
26211;SDS011;13951;49.516;6.094;2023-11-21T19:48:59;12.90;;;5.93;;
26211;SDS011;13951;49.516;6.094;2023-11-21T19:51:34;14.27;;;7.63;;
26211;SDS011;13951;49.516;6.094;2023-11-21T19:54:08;15.27;;;7.80;;
26211;SDS011;13951;49.516;6.094;2023-11-21T19:56:42;14.70;;;8.10;;
26211;SDS011;13951;49.516;6.094;2023-11-21T19:59:15;19.00;;;9.00;;
26211;SDS011;13951;49.516;6.094;2023-11-21T20:01:52;14.60;;;6.90;;
26211;SDS011;13951;49.516;6.094;2023-11-21T20:04:25;15.10;;;7.20;;
26211;SDS011;13951;49.516;6.094;2023-11-21T20:06:59;11.77;;;5.93;;
26211;SDS011;13951;49.516;6.094;2023-11-21T20:09:32;12.57;;;6.93;;
26211;SDS011;13951;49.516;6.094;2023-11-21T20:12:05;14.53;;;6.90;;
26211;SDS011;13951;49.516;6.094;2023-11-21T20:14:39;10.97;;;6.63;;
26211;SDS011;13951;49.516;6.094;2023-11-21T20:17:12;10.20;;;5.57;;
26211;SDS011;13951;49.516;6.094;2023-11-21T20:19:48;8.63;;;5.07;;
26211;SDS011;13951;49.516;6.094;2023-11-21T20:22:22;10.43;;;5.33;;
26211;SDS011;13951;49.516;6.094;2023-11-21T20:24:55;9.97;;;4.50;;
26211;SDS011;13951;49.516;6.094;2023-11-21T20:27:29;6.20;;;4.10;;
26211;SDS011;13951;49.516;6.094;2023-11-21T20:30:03;13.50;;;5.00;;
26211;SDS011;13951;49.516;6.094;2023-11-21T20:32:36;8.23;;;4.53;;
26211;SDS011;13951;49.516;6.094;2023-11-21T20:35:11;8.67;;;4.50;;
26211;SDS011;13951;49.516;6.094;2023-11-21T20:37:45;9.50;;;4.47;;
26211;SDS011;13951;49.516;6.094;2023-11-21T20:40:19;10.47;;;4.27;;
26211;SDS011;13951;49.516;6.094;2023-11-21T20:42:52;11.57;;;4.60;;
26211;SDS011;13951;49.516;6.094;2023-11-21T20:45:26;8.57;;;4.93;;
26211;SDS011;13951;49.516;6.094;2023-11-21T20:47:59;11.33;;;4.83;;
26211;SDS011;13951;49.516;6.094;2023-11-21T20:50:37;11.43;;;6.33;;
26211;SDS011;13951;49.516;6.094;2023-11-21T20:53:10;10.67;;;6.10;;
26211;SDS011;13951;49.516;6.094;2023-11-21T20:55:43;10.63;;;6.47;;
26211;SDS011;13951;49.516;6.094;2023-11-21T20:58:21;14.07;;;6.30;;
26211;SDS011;13951;49.516;6.094;2023-11-21T21:00:55;8.47;;;5.50;;
26211;SDS011;13951;49.516;6.094;2023-11-21T21:03:28;11.93;;;6.67;;
26211;SDS011;13951;49.516;6.094;2023-11-21T21:06:01;12.07;;;6.37;;
26211;SDS011;13951;49.516;6.094;2023-11-21T21:08:35;11.03;;;6.67;;
26211;SDS011;13951;49.516;6.094;2023-11-21T21:11:08;13.50;;;6.43;;
26211;SDS011;13951;49.516;6.094;2023-11-21T21:13:42;12.60;;;6.03;;
26211;SDS011;13951;49.516;6.094;2023-11-21T21:16:15;10.77;;;5.80;;
26211;SDS011;13951;49.516;6.094;2023-11-21T21:18:48;13.40;;;6.47;;
26211;SDS011;13951;49.516;6.094;2023-11-21T21:21:22;12.03;;;6.00;;
26211;SDS011;13951;49.516;6.094;2023-11-21T21:23:55;10.83;;;5.40;;
26211;SDS011;13951;49.516;6.094;2023-11-21T21:26:30;11.20;;;5.93;;
26211;SDS011;13951;49.516;6.094;2023-11-21T21:29:06;11.53;;;5.83;;
26211;SDS011;13951;49.516;6.094;2023-11-21T21:31:41;8.30;;;5.17;;
26211;SDS011;13951;49.516;6.094;2023-11-21T21:34:14;12.77;;;5.17;;
26211;SDS011;13951;49.516;6.094;2023-11-21T21:36:49;10.13;;;5.60;;
26211;SDS011;13951;49.516;6.094;2023-11-21T21:39:22;8.97;;;4.70;;
26211;SDS011;13951;49.516;6.094;2023-11-21T21:41:55;10.30;;;5.13;;
26211;SDS011;13951;49.516;6.094;2023-11-21T21:44:28;9.60;;;4.37;;
26211;SDS011;13951;49.516;6.094;2023-11-21T21:47:02;8.97;;;4.73;;
26211;SDS011;13951;49.516;6.094;2023-11-21T21:49:35;11.50;;;5.40;;
26211;SDS011;13951;49.516;6.094;2023-11-21T21:52:09;6.20;;;4.47;;
26211;SDS011;13951;49.516;6.094;2023-11-21T21:54:43;6.80;;;4.57;;
26211;SDS011;13951;49.516;6.094;2023-11-21T21:57:16;9.73;;;4.70;;
26211;SDS011;13951;49.516;6.094;2023-11-21T21:59:49;11.07;;;4.80;;
26211;SDS011;13951;49.516;6.094;2023-11-21T22:02:22;8.07;;;4.50;;
26211;SDS011;13951;49.516;6.094;2023-11-21T22:04:56;8.20;;;4.60;;
26211;SDS011;13951;49.516;6.094;2023-11-21T22:07:30;8.10;;;3.97;;
26211;SDS011;13951;49.516;6.094;2023-11-21T22:10:03;5.90;;;4.30;;
26211;SDS011;13951;49.516;6.094;2023-11-21T22:12:36;6.23;;;4.23;;
26211;SDS011;13951;49.516;6.094;2023-11-21T22:15:10;6.87;;;4.27;;
26211;SDS011;13951;49.516;6.094;2023-11-21T22:17:43;8.40;;;4.53;;
26211;SDS011;13951;49.516;6.094;2023-11-21T22:20:17;8.17;;;4.30;;
26211;SDS011;13951;49.516;6.094;2023-11-21T22:22:52;6.93;;;4.43;;
26211;SDS011;13951;49.516;6.094;2023-11-21T22:25:25;11.40;;;4.30;;
26211;SDS011;13951;49.516;6.094;2023-11-21T22:27:59;9.60;;;5.20;;
26211;SDS011;13951;49.516;6.094;2023-11-21T22:30:32;9.13;;;4.70;;
26211;SDS011;13951;49.516;6.094;2023-11-21T22:33:06;7.73;;;4.67;;
26211;SDS011;13951;49.516;6.094;2023-11-21T22:35:39;8.10;;;4.57;;
26211;SDS011;13951;49.516;6.094;2023-11-21T22:38:17;7.73;;;5.03;;
26211;SDS011;13951;49.516;6.094;2023-11-21T22:40:51;8.53;;;5.07;;
26211;SDS011;13951;49.516;6.094;2023-11-21T22:43:24;5.67;;;4.37;;
26211;SDS011;13951;49.516;6.094;2023-11-21T22:45:58;9.00;;;4.67;;
26211;SDS011;13951;49.516;6.094;2023-11-21T22:48:31;5.50;;;3.97;;
26211;SDS011;13951;49.516;6.094;2023-11-21T22:51:05;5.37;;;3.97;;
26211;SDS011;13951;49.516;6.094;2023-11-21T22:53:38;4.87;;;3.83;;
26211;SDS011;13951;49.516;6.094;2023-11-21T22:56:11;7.47;;;4.20;;
26211;SDS011;13951;49.516;6.094;2023-11-21T22:58:46;5.33;;;3.90;;
26211;SDS011;13951;49.516;6.094;2023-11-21T23:01:19;6.70;;;3.90;;
26211;SDS011;13951;49.516;6.094;2023-11-21T23:03:52;5.87;;;3.73;;
26211;SDS011;13951;49.516;6.094;2023-11-21T23:06:26;5.90;;;3.73;;
26211;SDS011;13951;49.516;6.094;2023-11-21T23:09:01;5.97;;;4.03;;
26211;SDS011;13951;49.516;6.094;2023-11-21T23:11:34;6.07;;;4.20;;
26211;SDS011;13951;49.516;6.094;2023-11-21T23:14:08;5.37;;;3.83;;
26211;SDS011;13951;49.516;6.094;2023-11-21T23:16:42;7.23;;;4.67;;
26211;SDS011;13951;49.516;6.094;2023-11-21T23:19:15;6.00;;;4.47;;
26211;SDS011;13951;49.516;6.094;2023-11-21T23:21:49;5.50;;;4.17;;
26211;SDS011;13951;49.516;6.094;2023-11-21T23:24:22;6.33;;;4.70;;
26211;SDS011;13951;49.516;6.094;2023-11-21T23:26:56;6.60;;;4.33;;
26211;SDS011;13951;49.516;6.094;2023-11-21T23:29:29;6.77;;;4.33;;
26211;SDS011;13951;49.516;6.094;2023-11-21T23:32:03;5.50;;;4.43;;
26211;SDS011;13951;49.516;6.094;2023-11-21T23:34:38;6.63;;;4.37;;
26211;SDS011;13951;49.516;6.094;2023-11-21T23:37:11;5.63;;;4.30;;
26211;SDS011;13951;49.516;6.094;2023-11-21T23:39:44;6.60;;;4.80;;
26211;SDS011;13951;49.516;6.094;2023-11-21T23:42:18;6.00;;;4.40;;
26211;SDS011;13951;49.516;6.094;2023-11-21T23:44:52;6.40;;;4.23;;
26211;SDS011;13951;49.516;6.094;2023-11-21T23:47:26;6.23;;;4.33;;
26211;SDS011;13951;49.516;6.094;2023-11-21T23:50:00;6.70;;;4.73;;
26211;SDS011;13951;49.516;6.094;2023-11-21T23:52:36;8.03;;;4.70;;
26211;SDS011;13951;49.516;6.094;2023-11-21T23:55:10;7.43;;;4.87;;
26211;SDS011;13951;49.516;6.094;2023-11-21T23:57:44;5.87;;;4.13;;
